Time;durP1;ratioP1;P1;durP2;ratioP2;P2;SDS_P1;SDS_P2;PMS_P1;PMS_P2;Temp;Humidity;BMP_temperature;BMP_pressure;BME280_temperature;BME280_humidity;BME280_pressure;Samples;Min_cycle;Max_cycle;Signal;HPM_P1;HPM_P2
2021/12/24 00:00:20;;;;;;;29.98;23.65;;;;;;;;;;5034909;28;20057;-61
2021/12/24 00:02:49;;;;;;;32.95;24.77;;;;;;;;;;5034314;28;20111;-61
2021/12/24 00:05:17;;;;;;;32.35;24.48;;;;;;;;;;5032356;28;20050;-61
2021/12/24 00:07:44;;;;;;;30.30;22.38;;;;;;;;;;5034983;28;20060;-61
2021/12/24 00:10:11;;;;;;;30.15;22.48;;;;;;;;;;5034504;28;20130;-61
2021/12/24 00:12:44;;;;;;;30.73;22.30;;;;;;;;;;5033205;28;20512;-61
2021/12/24 00:18:05;;;;;;;30.02;23.10;;;;;;;;;;5031898;28;20041;-61
2021/12/24 00:37:03;;;;;;;28.83;20.95;;;;;;;;;;5035720;28;20096;-61
2021/12/24 00:39:30;;;;;;;26.75;21.77;;;;;;;;;;5046620;28;20033;-61
2021/12/24 00:41:57;;;;;;;28.92;22.45;;;;;;;;;;5035887;28;20526;-61
2021/12/24 00:44:25;;;;;;;31.25;24.33;;;;;;;;;;5037339;28;20053;-61
2021/12/24 00:46:51;;;;;;;28.65;20.55;;;;;;;;;;5034780;28;20052;-61
2021/12/24 00:49:18;;;;;;;26.70;21.70;;;;;;;;;;5035823;28;20111;-62
2021/12/24 00:57:16;;;;;;;29.58;21.52;;;;;;;;;;5050730;28;20029;-62
2021/12/24 00:59:44;;;;;;;25.85;21.98;;;;;;;;;;5049219;28;20127;-62
2021/12/24 01:02:11;;;;;;;28.33;20.73;;;;;;;;;;5049601;28;20045;-61
2021/12/24 01:04:38;;;;;;;28.65;21.27;;;;;;;;;;5052568;28;20044;-61
2021/12/24 01:07:05;;;;;;;29.95;22.92;;;;;;;;;;5051504;28;20045;-61
2021/12/24 01:09:32;;;;;;;29.70;22.52;;;;;;;;;;5050794;28;20042;-62
2021/12/24 01:11:59;;;;;;;27.52;21.10;;;;;;;;;;5050644;28;20049;-62
2021/12/24 01:14:28;;;;;;;30.10;22.08;;;;;;;;;;5051410;28;20055;-61
2021/12/24 01:17:09;;;;;;;30.20;22.17;;;;;;;;;;5051924;28;20513;-62
2021/12/24 01:19:40;;;;;;;25.15;19.20;;;;;;;;;;5048726;28;20060;-61
2021/12/24 01:25:09;;;;;;;27.67;21.42;;;;;;;;;;5051058;28;20048;-61
2021/12/24 01:38:25;;;;;;;26.15;20.70;;;;;;;;;;5049853;28;20038;-61
2021/12/24 01:43:28;;;;;;;24.27;19.52;;;;;;;;;;5049583;28;20045;-61
2021/12/24 01:45:57;;;;;;;29.85;20.02;;;;;;;;;;5048477;28;20064;-61
2021/12/24 01:48:25;;;;;;;25.08;19.38;;;;;;;;;;5033906;28;20070;-62
2021/12/24 01:50:53;;;;;;;26.00;20.90;;;;;;;;;;5033297;28;20381;-62
2021/12/24 01:53:25;;;;;;;24.80;19.13;;;;;;;;;;5032613;28;20053;-62
2021/12/24 01:55:54;;;;;;;24.85;20.77;;;;;;;;;;5033572;28;20044;-62
2021/12/24 01:58:26;;;;;;;25.42;19.85;;;;;;;;;;5033297;28;20103;-62
2021/12/24 02:00:55;;;;;;;22.52;17.13;;;;;;;;;;5032712;28;20057;-62
2021/12/24 02:03:23;;;;;;;25.02;18.52;;;;;;;;;;5032671;28;20073;-61
2021/12/24 02:05:50;;;;;;;28.65;19.38;;;;;;;;;;5039507;28;20033;-61
2021/12/24 02:08:18;;;;;;;23.95;19.35;;;;;;;;;;5046288;28;20055;-62
2021/12/24 02:10:48;;;;;;;25.42;19.58;;;;;;;;;;5051979;28;20041;-62
2021/12/24 02:13:16;;;;;;;27.42;18.95;;;;;;;;;;5052203;28;20041;-62
2021/12/24 02:16:06;;;;;;;24.67;20.90;;;;;;;;;;5052147;28;20047;-62
2021/12/24 02:29:38;;;;;;;22.92;18.80;;;;;;;;;;5051951;28;20418;-62
2021/12/24 02:32:06;;;;;;;24.23;18.98;;;;;;;;;;5051421;28;20451;-61
2021/12/24 02:34:33;;;;;;;21.73;16.30;;;;;;;;;;5053516;28;20053;-62
2021/12/24 02:37:00;;;;;;;20.33;16.77;;;;;;;;;;5051589;28;20102;-62
2021/12/24 02:39:28;;;;;;;19.50;16.65;;;;;;;;;;5053740;28;20049;-61
2021/12/24 02:41:57;;;;;;;21.38;16.75;;;;;;;;;;5051889;28;20047;-62
2021/12/24 02:44:24;;;;;;;22.73;17.92;;;;;;;;;;5052275;28;20041;-61
2021/12/24 02:54:55;;;;;;;24.25;16.52;;;;;;;;;;5052068;28;20124;-62
2021/12/24 02:57:27;;;;;;;20.83;15.43;;;;;;;;;;5052256;28;20055;-61
2021/12/24 03:00:06;;;;;;;25.83;17.77;;;;;;;;;;5051112;28;20074;-61
2021/12/24 03:02:37;;;;;;;20.52;16.17;;;;;;;;;;5053200;28;20037;-61
2021/12/24 03:05:05;;;;;;;18.00;15.43;;;;;;;;;;5051034;28;20562;-61
2021/12/24 03:07:31;;;;;;;19.52;15.18;;;;;;;;;;5032078;28;20088;-62
2021/12/24 03:10:00;;;;;;;21.42;16.58;;;;;;;;;;5031713;28;20499;-61
2021/12/24 03:12:27;;;;;;;18.48;16.33;;;;;;;;;;5031496;28;20480;-61
2021/12/24 03:14:55;;;;;;;19.75;16.80;;;;;;;;;;5031587;28;20048;-61
2021/12/24 03:17:24;;;;;;;22.80;17.98;;;;;;;;;;5032088;28;20045;-61
2021/12/24 03:19:53;;;;;;;19.05;15.50;;;;;;;;;;5031475;28;20048;-62
2021/12/24 03:25:02;;;;;;;20.60;17.25;;;;;;;;;;5031430;28;20045;-62
2021/12/24 03:27:29;;;;;;;20.20;17.05;;;;;;;;;;5032893;28;20055;-61
2021/12/24 03:29:57;;;;;;;21.95;16.60;;;;;;;;;;5031632;28;20120;-62
2021/12/24 03:32:25;;;;;;;18.77;14.48;;;;;;;;;;5031501;28;20103;-61
2021/12/24 03:34:52;;;;;;;17.15;15.32;;;;;;;;;;5031550;28;20385;-62
2021/12/24 03:37:19;;;;;;;23.92;17.33;;;;;;;;;;5032513;28;20071;-62
2021/12/24 03:39:47;;;;;;;20.45;15.77;;;;;;;;;;5030631;28;20048;-62
2021/12/24 03:42:14;;;;;;;20.30;16.95;;;;;;;;;;5031185;28;20496;-62
2021/12/24 03:44:45;;;;;;;18.75;13.90;;;;;;;;;;5031394;28;20046;-62
2021/12/24 03:47:16;;;;;;;20.30;17.00;;;;;;;;;;5031130;28;20132;-62
2021/12/24 03:50:08;;;;;;;22.63;16.73;;;;;;;;;;5032462;28;20428;-62
2021/12/24 03:55:26;;;;;;;19.20;14.63;;;;;;;;;;5004177;28;20045;-62
2021/12/24 03:57:53;;;;;;;26.25;18.70;;;;;;;;;;5032278;28;20037;-63
2021/12/24 04:00:38;;;;;;;23.17;18.85;;;;;;;;;;5032811;28;20116;-61
2021/12/24 04:03:20;;;;;;;19.83;16.48;;;;;;;;;;5032137;28;20041;-62
2021/12/24 04:05:50;;;;;;;27.05;18.30;;;;;;;;;;5032505;28;20049;-60
2021/12/24 04:08:35;;;;;;;25.00;19.33;;;;;;;;;;5036063;28;20069;-61
2021/12/24 04:11:21;;;;;;;21.23;17.00;;;;;;;;;;5036832;28;20395;-62
2021/12/24 04:13:49;;;;;;;25.13;18.75;;;;;;;;;;5034925;28;20124;-62
2021/12/24 04:16:16;;;;;;;25.20;19.35;;;;;;;;;;5035394;28;20459;-62
2021/12/24 04:27:34;;;;;;;24.70;19.58;;;;;;;;;;5014303;28;20128;-63
2021/12/24 04:30:13;;;;;;;23.55;18.75;;;;;;;;;;5027313;28;20119;-63
2021/12/24 04:33:00;;;;;;;25.35;19.42;;;;;;;;;;5034854;28;20049;-62
2021/12/24 04:51:54;;;;;;;23.83;18.35;;;;;;;;;;5034332;28;20045;-62
2021/12/24 05:05:23;;;;;;;26.05;21.05;;;;;;;;;;5034309;28;20045;-62
2021/12/24 05:10:28;;;;;;;22.88;18.85;;;;;;;;;;5034252;28;20053;-61
2021/12/24 05:12:56;;;;;;;24.85;18.65;;;;;;;;;;5034158;28;20045;-63
2021/12/24 05:15:36;;;;;;;24.45;19.50;;;;;;;;;;5034004;28;20042;-62
2021/12/24 05:18:33;;;;;;;24.73;19.35;;;;;;;;;;5034714;28;20051;-62
2021/12/24 05:21:34;;;;;;;23.00;17.02;;;;;;;;;;5035599;28;20053;-62
2021/12/24 05:24:05;;;;;;;26.27;19.58;;;;;;;;;;5033694;28;20057;-62
2021/12/24 05:26:35;;;;;;;23.42;18.38;;;;;;;;;;5036838;28;20046;-62
2021/12/24 05:29:03;;;;;;;25.77;18.15;;;;;;;;;;5046663;28;20570;-63
2021/12/24 05:31:31;;;;;;;22.52;17.40;;;;;;;;;;5043167;28;20531;-62
2021/12/24 05:33:59;;;;;;;26.40;17.85;;;;;;;;;;5044589;28;20057;-64
2021/12/24 05:36:26;;;;;;;23.25;18.65;;;;;;;;;;5053901;28;20510;-64
2021/12/24 05:38:53;;;;;;;24.42;20.92;;;;;;;;;;5053907;28;20407;-64
2021/12/24 05:41:23;;;;;;;27.13;20.58;;;;;;;;;;5052578;28;20048;-63
2021/12/24 05:43:51;;;;;;;29.90;21.25;;;;;;;;;;5052683;28;20045;-63
2021/12/24 05:46:25;;;;;;;29.48;21.70;;;;;;;;;;5052293;28;20435;-63
2021/12/24 05:49:14;;;;;;;31.65;22.73;;;;;;;;;;5052707;28;20048;-63
2021/12/24 05:51:56;;;;;;;28.80;22.52;;;;;;;;;;5052405;28;20099;-63
2021/12/24 05:54:34;;;;;;;32.40;21.63;;;;;;;;;;5052397;28;20045;-63
2021/12/24 05:57:01;;;;;;;26.83;20.98;;;;;;;;;;5052246;28;20045;-63
2021/12/24 05:59:28;;;;;;;34.05;24.67;;;;;;;;;;5052410;28;20067;-62
2021/12/24 06:01:55;;;;;;;32.05;22.45;;;;;;;;;;5052454;28;20408;-63
2021/12/24 06:04:22;;;;;;;33.17;23.67;;;;;;;;;;5053433;28;20505;-62
2021/12/24 06:06:49;;;;;;;33.28;22.98;;;;;;;;;;5053459;28;20045;-63
2021/12/24 06:09:16;;;;;;;31.52;23.88;;;;;;;;;;5053049;28;20041;-63
2021/12/24 06:11:43;;;;;;;30.40;20.60;;;;;;;;;;5053276;28;20045;-63
2021/12/24 06:14:11;;;;;;;32.45;23.77;;;;;;;;;;5053173;28;20077;-63
2021/12/24 06:16:50;;;;;;;29.73;22.90;;;;;;;;;;5053337;28;20041;-62
2021/12/24 06:19:18;;;;;;;27.70;20.88;;;;;;;;;;5053014;28;20049;-63
2021/12/24 06:21:45;;;;;;;29.42;21.42;;;;;;;;;;5053906;28;20098;-62
2021/12/24 06:24:13;;;;;;;32.70;23.85;;;;;;;;;;5046469;28;20053;-62
2021/12/24 06:26:40;;;;;;;29.25;22.13;;;;;;;;;;5033923;28;20042;-63
2021/12/24 06:29:07;;;;;;;25.73;19.70;;;;;;;;;;5033641;28;20045;-63
2021/12/24 06:31:34;;;;;;;29.98;22.10;;;;;;;;;;5033764;28;20091;-62
2021/12/24 06:34:01;;;;;;;24.88;21.88;;;;;;;;;;5033831;28;20045;-62
2021/12/24 06:36:30;;;;;;;29.27;24.08;;;;;;;;;;5033212;28;20045;-63
2021/12/24 06:38:57;;;;;;;33.83;24.77;;;;;;;;;;5033480;28;20041;-63
2021/12/24 06:41:24;;;;;;;37.85;26.58;;;;;;;;;;5034954;28;20049;-62
2021/12/24 06:43:50;;;;;;;29.30;22.65;;;;;;;;;;5042731;28;20041;-62
2021/12/24 06:46:17;;;;;;;35.30;26.15;;;;;;;;;;5048684;28;20377;-60
2021/12/24 06:48:45;;;;;;;37.58;26.00;;;;;;;;;;5050031;28;20051;-60
2021/12/24 06:51:12;;;;;;;30.42;24.25;;;;;;;;;;5049605;28;20091;-62
2021/12/24 06:53:39;;;;;;;27.00;21.08;;;;;;;;;;5051715;28;20037;-62
2021/12/24 06:56:08;;;;;;;29.45;23.35;;;;;;;;;;5048098;28;20056;-60
2021/12/24 06:58:39;;;;;;;24.95;21.05;;;;;;;;;;5047992;28;20033;-60
2021/12/24 07:01:06;;;;;;;29.45;22.17;;;;;;;;;;5049321;28;20044;-60
2021/12/24 07:03:34;;;;;;;28.95;21.45;;;;;;;;;;5049898;28;20045;-60
2021/12/24 07:06:01;;;;;;;24.75;17.27;;;;;;;;;;5046315;28;20107;-59
2021/12/24 07:08:28;;;;;;;27.90;19.83;;;;;;;;;;5041737;28;20034;-58
2021/12/24 07:10:56;;;;;;;26.45;20.52;;;;;;;;;;5049531;28;20053;-60
2021/12/24 07:13:24;;;;;;;30.25;23.23;;;;;;;;;;5050044;28;20045;-61
2021/12/24 07:15:51;;;;;;;32.17;23.63;;;;;;;;;;5046294;28;20049;-59
2021/12/24 07:18:18;;;;;;;28.23;22.48;;;;;;;;;;5048117;28;20412;-60
2021/12/24 07:20:45;;;;;;;29.52;24.25;;;;;;;;;;5049529;28;20061;-59
2021/12/24 07:23:11;;;;;;;37.00;26.35;;;;;;;;;;5041183;28;20388;-58
2021/12/24 07:25:38;;;;;;;33.50;24.40;;;;;;;;;;5044116;28;20045;-59
2021/12/24 07:28:06;;;;;;;30.42;22.27;;;;;;;;;;5047939;28;20098;-58
2021/12/24 07:30:33;;;;;;;30.52;22.83;;;;;;;;;;5046117;28;20045;-59
2021/12/24 07:33:00;;;;;;;40.33;24.70;;;;;;;;;;5040793;28;20041;-60
2021/12/24 07:35:27;;;;;;;30.38;25.05;;;;;;;;;;5039664;28;20048;-61
2021/12/24 07:37:54;;;;;;;33.40;25.58;;;;;;;;;;5045701;28;20553;-60
2021/12/24 07:40:23;;;;;;;40.40;28.10;;;;;;;;;;5043478;28;20404;-61
2021/12/24 07:42:50;;;;;;;33.28;27.08;;;;;;;;;;5040830;28;20404;-60
2021/12/24 07:45:18;;;;;;;32.22;27.83;;;;;;;;;;5046832;28;20143;-60
2021/12/24 07:47:55;;;;;;;35.67;28.83;;;;;;;;;;5044553;28;20045;-60
2021/12/24 07:52:56;;;;;;;40.25;29.88;;;;;;;;;;5038392;28;20049;-60
2021/12/24 07:55:23;;;;;;;40.72;30.40;;;;;;;;;;5038195;28;20049;-60
2021/12/24 07:57:52;;;;;;;38.78;30.63;;;;;;;;;;5041221;28;20041;-62
2021/12/24 08:00:22;;;;;;;39.22;30.95;;;;;;;;;;5039789;28;20033;-62
2021/12/24 08:02:50;;;;;;;41.15;30.23;;;;;;;;;;5047449;28;20135;-62
2021/12/24 08:05:19;;;;;;;38.35;32.63;;;;;;;;;;5047959;28;20037;-63
2021/12/24 08:07:46;;;;;;;36.55;27.65;;;;;;;;;;5049100;28;20045;-63
2021/12/24 08:10:13;;;;;;;38.45;29.70;;;;;;;;;;5046341;28;20068;-63
2021/12/24 08:12:40;;;;;;;30.98;23.40;;;;;;;;;;5035310;28;20045;-61
2021/12/24 08:15:08;;;;;;;32.25;25.42;;;;;;;;;;5041476;28;20041;-63
2021/12/24 08:17:35;;;;;;;36.08;24.40;;;;;;;;;;5043050;28;20052;-62
2021/12/24 08:20:04;;;;;;;31.88;25.92;;;;;;;;;;5045371;28;20050;-63
2021/12/24 08:22:31;;;;;;;35.30;27.02;;;;;;;;;;5039517;28;20067;-61
2021/12/24 08:24:58;;;;;;;38.38;29.55;;;;;;;;;;5048675;28;20116;-60
2021/12/24 08:27:25;;;;;;;34.70;27.92;;;;;;;;;;5047462;28;20060;-61
2021/12/24 08:29:52;;;;;;;33.58;27.85;;;;;;;;;;5043919;28;20048;-60
2021/12/24 08:32:19;;;;;;;38.28;27.40;;;;;;;;;;5045326;28;20044;-61
2021/12/24 08:34:47;;;;;;;38.35;28.42;;;;;;;;;;5046980;28;20053;-61
2021/12/24 08:37:14;;;;;;;39.08;26.83;;;;;;;;;;5044615;28;20602;-58
2021/12/24 08:39:40;;;;;;;60.47;27.92;;;;;;;;;;5043375;28;20036;-59
2021/12/24 08:42:08;;;;;;;36.45;28.90;;;;;;;;;;5033617;28;20496;-58
2021/12/24 08:44:36;;;;;;;34.35;28.17;;;;;;;;;;5039282;28;20037;-59
2021/12/24 08:47:04;;;;;;;41.28;29.48;;;;;;;;;;5037398;28;20373;-59
2021/12/24 08:49:32;;;;;;;40.92;29.48;;;;;;;;;;5034460;28;20087;-59
2021/12/24 08:51:59;;;;;;;41.97;30.33;;;;;;;;;;5036522;28;20041;-58
2021/12/24 08:54:26;;;;;;;49.25;36.05;;;;;;;;;;5037307;28;20056;-59
2021/12/24 08:56:54;;;;;;;38.22;31.15;;;;;;;;;;5038232;28;20483;-59
2021/12/24 08:59:23;;;;;;;42.28;32.35;;;;;;;;;;5036219;28;20053;-60
2021/12/24 09:01:53;;;;;;;37.97;30.33;;;;;;;;;;5038647;28;20107;-59
2021/12/24 09:04:20;;;;;;;39.83;30.10;;;;;;;;;;5039347;28;20037;-59
2021/12/24 09:06:47;;;;;;;41.78;32.38;;;;;;;;;;5040375;28;20516;-58
2021/12/24 09:09:14;;;;;;;41.13;31.45;;;;;;;;;;5037608;28;20076;-59
2021/12/24 09:11:43;;;;;;;38.40;30.88;;;;;;;;;;5038515;28;20117;-59
2021/12/24 09:14:10;;;;;;;40.58;30.58;;;;;;;;;;5037025;28;20052;-56
2021/12/24 09:16:39;;;;;;;45.72;34.03;;;;;;;;;;5039326;28;20046;-59
2021/12/24 09:19:11;;;;;;;43.80;32.72;;;;;;;;;;5041913;28;20033;-59
2021/12/24 09:21:38;;;;;;;41.08;30.88;;;;;;;;;;5038848;28;20037;-58
2021/12/24 09:24:07;;;;;;;41.08;32.58;;;;;;;;;;5037722;28;20561;-60
2021/12/24 09:26:36;;;;;;;35.70;29.55;;;;;;;;;;5035139;28;20045;-60
2021/12/24 09:29:07;;;;;;;38.15;30.50;;;;;;;;;;5039449;28;20041;-59
2021/12/24 09:31:34;;;;;;;39.38;30.88;;;;;;;;;;5040335;28;20536;-58
2021/12/24 09:34:01;;;;;;;39.50;31.00;;;;;;;;;;5037483;28;20057;-59
2021/12/24 09:36:29;;;;;;;41.25;29.85;;;;;;;;;;5038561;28;20045;-58
2021/12/24 09:39:02;;;;;;;41.13;30.20;;;;;;;;;;5038639;28;20047;-57
2021/12/24 09:41:29;;;;;;;41.72;31.42;;;;;;;;;;5038759;28;20551;-58
2021/12/24 09:43:58;;;;;;;46.17;32.78;;;;;;;;;;5038431;28;20476;-59
2021/12/24 09:46:26;;;;;;;44.55;32.95;;;;;;;;;;5037603;28;20041;-60
2021/12/24 09:48:54;;;;;;;38.75;31.52;;;;;;;;;;5039071;28;20046;-58
2021/12/24 09:51:25;;;;;;;50.10;34.92;;;;;;;;;;5038490;28;20041;-60
2021/12/24 09:53:52;;;;;;;43.55;33.20;;;;;;;;;;5040704;28;20049;-59
2021/12/24 09:56:20;;;;;;;42.65;33.47;;;;;;;;;;5040297;28;20049;-59
2021/12/24 09:58:48;;;;;;;45.38;34.17;;;;;;;;;;5037555;28;20052;-58
2021/12/24 10:01:31;;;;;;;41.00;34.42;;;;;;;;;;5036501;28;20108;-59
2021/12/24 10:04:05;;;;;;;42.95;34.85;;;;;;;;;;5036343;28;20519;-59
2021/12/24 10:06:32;;;;;;;44.97;32.00;;;;;;;;;;5037964;28;20391;-59
2021/12/24 10:09:11;;;;;;;44.60;35.30;;;;;;;;;;5037691;28;20048;-59
2021/12/24 10:11:57;;;;;;;47.38;32.83;;;;;;;;;;5037257;28;20563;-58
2021/12/24 10:14:31;;;;;;;48.33;35.97;;;;;;;;;;5037391;28;20041;-59
2021/12/24 10:16:59;;;;;;;50.83;35.88;;;;;;;;;;5037425;28;20052;-59
2021/12/24 10:19:26;;;;;;;47.05;33.38;;;;;;;;;;5037180;28;20041;-57
2021/12/24 10:21:59;;;;;;;44.83;33.97;;;;;;;;;;5041054;28;20047;-59
2021/12/24 10:24:26;;;;;;;47.83;36.20;;;;;;;;;;5047104;28;20041;-59
2021/12/24 10:26:58;;;;;;;48.47;36.13;;;;;;;;;;5051032;28;20076;-58
2021/12/24 10:29:34;;;;;;;42.05;32.80;;;;;;;;;;5050051;28;20496;-59
2021/12/24 10:32:15;;;;;;;46.67;33.25;;;;;;;;;;5043826;28;20041;-59
2021/12/24 10:34:43;;;;;;;63.17;35.72;;;;;;;;;;5048961;28;20099;-59
2021/12/24 10:37:14;;;;;;;44.60;31.83;;;;;;;;;;5038449;28;20041;-61
2021/12/24 10:39:44;;;;;;;42.15;32.05;;;;;;;;;;5041619;28;20045;-59
2021/12/24 10:42:12;;;;;;;50.03;34.45;;;;;;;;;;5042585;28;20045;-59
2021/12/24 10:44:41;;;;;;;66.32;36.42;;;;;;;;;;5037616;28;20115;-59
2021/12/24 10:47:12;;;;;;;47.78;34.58;;;;;;;;;;5036077;28;20400;-59
2021/12/24 10:52:42;;;;;;;45.75;36.13;;;;;;;;;;5042454;28;20049;-59
2021/12/24 10:55:15;;;;;;;43.22;33.95;;;;;;;;;;5035486;28;20041;-59
2021/12/24 10:57:44;;;;;;;42.88;35.17;;;;;;;;;;5037925;28;20558;-61
2021/12/24 11:00:22;;;;;;;55.40;39.13;;;;;;;;;;5032789;28;20047;-59
2021/12/24 11:03:19;;;;;;;51.10;38.22;;;;;;;;;;5031531;28;20046;-60
2021/12/24 11:06:06;;;;;;;48.25;36.25;;;;;;;;;;5034464;28;20041;-59
2021/12/24 11:08:33;;;;;;;53.80;39.90;;;;;;;;;;5035961;28;20116;-59
2021/12/24 11:11:02;;;;;;;50.72;36.90;;;;;;;;;;5033366;28;20041;-58
2021/12/24 11:13:38;;;;;;;48.92;37.28;;;;;;;;;;5032703;28;20041;-59
2021/12/24 11:16:09;;;;;;;47.40;38.30;;;;;;;;;;5051301;28;20095;-58
2021/12/24 11:18:40;;;;;;;53.70;36.35;;;;;;;;;;5051473;28;20049;-58
2021/12/24 11:21:18;;;;;;;48.33;37.45;;;;;;;;;;5052223;28;20068;-57
2021/12/24 11:23:45;;;;;;;49.22;37.10;;;;;;;;;;5050239;28;20041;-58
2021/12/24 11:26:50;;;;;;;50.33;35.80;;;;;;;;;;5051877;28;20060;-53
2021/12/24 11:29:17;;;;;;;46.45;33.05;;;;;;;;;;5051372;28;20471;-58
2021/12/24 11:31:44;;;;;;;47.03;34.30;;;;;;;;;;5051955;28;20045;-57
2021/12/24 11:34:11;;;;;;;44.15;33.38;;;;;;;;;;5050143;28;20055;-57
2021/12/24 11:36:39;;;;;;;47.70;35.33;;;;;;;;;;5050618;28;20052;-57
2021/12/24 11:39:06;;;;;;;52.25;35.65;;;;;;;;;;5049664;28;20033;-59
2021/12/24 11:41:35;;;;;;;44.55;33.88;;;;;;;;;;5051008;28;20124;-57
2021/12/24 11:44:06;;;;;;;48.22;34.78;;;;;;;;;;5051636;28;20040;-57
2021/12/24 11:46:37;;;;;;;45.95;36.05;;;;;;;;;;5051350;28;20049;-57
2021/12/24 11:49:05;;;;;;;49.97;37.20;;;;;;;;;;5051739;28;20049;-58
2021/12/24 11:51:40;;;;;;;47.95;36.55;;;;;;;;;;5044159;28;20415;-58
2021/12/24 11:54:08;;;;;;;;;;;;;;;;;;5049314;28;20041;-58
2021/12/24 11:56:40;;;;;;;48.25;35.78;;;;;;;;;;5049880;28;19928;-58
2021/12/24 11:59:07;;;;;;;44.13;33.67;;;;;;;;;;5051631;28;20483;-57
2021/12/24 12:01:41;;;;;;;50.25;35.05;;;;;;;;;;5051137;28;20037;-58
2021/12/24 12:04:22;;;;;;;46.15;34.55;;;;;;;;;;5049282;28;20169;-58
2021/12/24 12:06:51;;;;;;;50.88;37.28;;;;;;;;;;5051440;28;20045;-57
2021/12/24 12:09:18;;;;;;;49.33;37.65;;;;;;;;;;5048395;28;20053;-57
2021/12/24 12:11:46;;;;;;;47.58;36.75;;;;;;;;;;5040432;28;20565;-56
2021/12/24 12:14:17;;;;;;;55.40;37.17;;;;;;;;;;5048754;28;20487;-57
2021/12/24 12:17:23;;;;;;;44.25;36.17;;;;;;;;;;5051202;28;20454;-57
2021/12/24 12:19:59;;;;;;;49.20;37.00;;;;;;;;;;5028501;28;20053;-57
2021/12/24 12:22:46;;;;;;;45.35;34.15;;;;;;;;;;5040164;28;20041;-57
2021/12/24 12:25:34;;;;;;;46.13;36.20;;;;;;;;;;5043855;28;20042;-57
2021/12/24 12:28:06;;;;;;;51.95;39.15;;;;;;;;;;5036625;28;20037;-57
2021/12/24 12:30:41;;;;;;;49.55;36.60;;;;;;;;;;5054383;28;20487;-57
2021/12/24 12:33:12;;;;;;;49.10;35.63;;;;;;;;;;5053074;28;20534;-55
2021/12/24 12:35:54;;;;;;;45.88;36.65;;;;;;;;;;5053636;28;20057;-56
2021/12/24 12:38:40;;;;;;;51.63;37.47;;;;;;;;;;5048876;28;20040;-54
2021/12/24 12:41:20;;;;;;;53.05;36.63;;;;;;;;;;5035494;28;20073;-56
2021/12/24 12:43:49;;;;;;;49.10;36.53;;;;;;;;;;5056959;28;20123;-54
2021/12/24 12:46:27;;;;;;;45.40;35.22;;;;;;;;;;5035231;28;20041;-56
2021/12/24 12:48:55;;;;;;;50.63;35.75;;;;;;;;;;5037099;28;20046;-57
2021/12/24 12:51:59;;;;;;;50.47;36.63;;;;;;;;;;5052769;28;20063;-56
2021/12/24 12:54:28;;;;;;;51.63;39.28;;;;;;;;;;5055037;28;20049;-55
2021/12/24 12:57:30;;;;;;;49.78;37.10;;;;;;;;;;5054762;28;20072;-57
2021/12/24 13:00:19;;;;;;;47.78;37.50;;;;;;;;;;5013038;28;20052;-56
2021/12/24 13:05:30;;;;;;;50.30;37.13;;;;;;;;;;5035179;28;20553;-57
2021/12/24 13:08:12;;;;;;;47.25;35.97;;;;;;;;;;5038400;28;20563;-58
2021/12/24 13:10:39;;;;;;;55.35;40.20;;;;;;;;;;5035169;28;20076;-56
2021/12/24 13:13:07;;;;;;;49.08;36.78;;;;;;;;;;5034603;28;20041;-57
2021/12/24 13:15:44;;;;;;;49.30;37.33;;;;;;;;;;5034707;28;20484;-57
2021/12/24 13:18:57;;;;;;;52.22;37.92;;;;;;;;;;5048427;28;20044;-57
2021/12/24 13:23:58;;;;;;;52.95;37.38;;;;;;;;;;5053647;28;20462;-56
2021/12/24 13:26:25;;;;;;;53.00;39.13;;;;;;;;;;5053367;28;20063;-56
2021/12/24 13:28:53;;;;;;;49.33;38.63;;;;;;;;;;5052098;28;20048;-53
2021/12/24 13:31:20;;;;;;;48.70;37.22;;;;;;;;;;5053469;28;20041;-55
2021/12/24 13:33:47;;;;;;;47.75;36.95;;;;;;;;;;5034407;28;20799;-63
2021/12/24 13:36:14;;;;;;;52.15;36.63;;;;;;;;;;5037305;28;20052;-58
2021/12/24 13:38:41;;;;;;;54.90;40.28;;;;;;;;;;5038019;28;20461;-58
2021/12/24 13:41:08;;;;;;;49.70;39.63;;;;;;;;;;5033438;28;20042;-59
2021/12/24 13:43:36;;;;;;;54.75;40.40;;;;;;;;;;5039019;28;20447;-58
2021/12/24 13:46:08;;;;;;;57.42;39.10;;;;;;;;;;5039007;28;20534;-60
2021/12/24 13:56:48;;;;;;;56.42;43.55;;;;;;;;;;5052890;28;20052;-59
2021/12/24 13:59:23;;;;;;;55.20;42.30;;;;;;;;;;5052973;28;20049;-58
2021/12/24 14:01:52;;;;;;;60.92;39.58;;;;;;;;;;5053305;28;20099;-58
2021/12/24 14:04:20;;;;;;;55.95;42.97;;;;;;;;;;5052938;28;20045;-55
2021/12/24 14:06:51;;;;;;;59.67;42.85;;;;;;;;;;5041215;28;20041;-59
2021/12/24 14:09:32;;;;;;;57.88;41.78;;;;;;;;;;5047268;28;20067;-59
2021/12/24 14:12:02;;;;;;;63.33;42.58;;;;;;;;;;5050524;28;20044;-59
2021/12/24 14:15:05;;;;;;;54.60;39.40;;;;;;;;;;5046531;28;20044;-55
2021/12/24 14:20:37;;;;;;;55.90;41.90;;;;;;;;;;5049787;28;20418;-59
2021/12/24 14:23:17;;;;;;;59.50;42.25;;;;;;;;;;5051232;28;20048;-58
2021/12/24 14:25:55;;;;;;;62.00;45.35;;;;;;;;;;5049102;28;20044;-60
2021/12/24 14:28:24;;;;;;;62.67;45.13;;;;;;;;;;5048983;28;20389;-59
2021/12/24 14:30:59;;;;;;;61.35;45.92;;;;;;;;;;5051803;28;20403;-59
2021/12/24 14:33:26;;;;;;;63.20;45.15;;;;;;;;;;5049167;28;20119;-59
2021/12/24 14:35:53;;;;;;;67.00;47.00;;;;;;;;;;5048304;28;20061;-59
2021/12/24 14:38:24;;;;;;;58.38;42.95;;;;;;;;;;5047973;28;20037;-59
2021/12/24 14:40:56;;;;;;;60.25;43.53;;;;;;;;;;5049823;28;20045;-59
2021/12/24 14:43:23;;;;;;;64.38;44.00;;;;;;;;;;5045254;28;20049;-60
2021/12/24 14:45:51;;;;;;;66.28;45.17;;;;;;;;;;5049354;28;20098;-59
2021/12/24 14:48:29;;;;;;;60.30;43.67;;;;;;;;;;5050214;28;20052;-58
2021/12/24 14:51:05;;;;;;;62.55;47.45;;;;;;;;;;5048852;28;20052;-59
2021/12/24 14:53:37;;;;;;;63.90;47.05;;;;;;;;;;5051322;28;20044;-60
2021/12/24 14:56:08;;;;;;;60.80;46.70;;;;;;;;;;5050728;28;20480;-59
2021/12/24 14:59:01;;;;;;;70.25;47.95;;;;;;;;;;5049383;28;20045;-58
2021/12/24 15:01:42;;;;;;;64.55;47.50;;;;;;;;;;5049450;28;20048;-58
2021/12/24 15:04:11;;;;;;;68.40;49.22;;;;;;;;;;5047906;28;20083;-57
2021/12/24 15:06:47;;;;;;;61.20;46.80;;;;;;;;;;5047624;28;20037;-58
2021/12/24 15:09:20;;;;;;;62.35;45.63;;;;;;;;;;5048512;28;20044;-56
2021/12/24 15:11:47;;;;;;;79.35;50.72;;;;;;;;;;5049875;28;20045;-59
2021/12/24 15:14:16;;;;;;;63.05;44.65;;;;;;;;;;5038938;28;20060;-58
2021/12/24 15:16:49;;;;;;;65.75;46.53;;;;;;;;;;5042769;28;20049;-58
2021/12/24 15:19:17;;;;;;;68.13;47.00;;;;;;;;;;5048990;28;20052;-59
2021/12/24 15:21:45;;;;;;;71.53;48.50;;;;;;;;;;5042433;28;20124;-58
2021/12/24 15:24:13;;;;;;;70.57;53.83;;;;;;;;;;5041293;28;20506;-56
2021/12/24 15:26:44;;;;;;;65.10;45.47;;;;;;;;;;5050792;28;20060;-59
2021/12/24 15:29:12;;;;;;;68.55;49.72;;;;;;;;;;5045181;28;20049;-57
2021/12/24 15:31:41;;;;;;;64.53;47.03;;;;;;;;;;5046131;28;20045;-58
2021/12/24 15:34:09;;;;;;;66.32;47.42;;;;;;;;;;5045537;28;20124;-59
2021/12/24 15:36:37;;;;;;;71.72;49.10;;;;;;;;;;5047959;28;20044;-57
2021/12/24 15:39:04;;;;;;;62.63;47.58;;;;;;;;;;5040740;28;20047;-57
2021/12/24 15:41:33;;;;;;;70.47;48.15;;;;;;;;;;5040120;28;20136;-56
2021/12/24 15:44:00;;;;;;;64.53;49.88;;;;;;;;;;5042229;28;20037;-57
2021/12/24 15:46:27;;;;;;;69.50;48.25;;;;;;;;;;5046363;28;20044;-58
2021/12/24 15:48:54;;;;;;;71.90;50.80;;;;;;;;;;5043632;28;20511;-56
2021/12/24 15:51:21;;;;;;;73.25;46.92;;;;;;;;;;5048677;28;20049;-59
2021/12/24 15:53:48;;;;;;;73.63;50.05;;;;;;;;;;5048225;28;20090;-57
2021/12/24 15:56:15;;;;;;;73.00;48.25;;;;;;;;;;5049522;28;20041;-55
2021/12/24 15:58:42;;;;;;;74.78;51.65;;;;;;;;;;5046815;28;20045;-58
2021/12/24 16:01:10;;;;;;;73.35;50.63;;;;;;;;;;5039236;28;20042;-56
2021/12/24 16:03:38;;;;;;;72.40;51.42;;;;;;;;;;5040937;28;20117;-54
2021/12/24 16:06:05;;;;;;;70.78;49.22;;;;;;;;;;5043626;28;20406;-58
2021/12/24 16:08:33;;;;;;;68.95;49.83;;;;;;;;;;5053092;28;20045;-58
2021/12/24 16:11:00;;;;;;;73.57;52.25;;;;;;;;;;5054450;28;20048;-59
2021/12/24 16:13:27;;;;;;;67.28;48.67;;;;;;;;;;5051505;28;20049;-56
2021/12/24 16:15:56;;;;;;;70.25;50.90;;;;;;;;;;5043515;28;20099;-59
2021/12/24 16:18:23;;;;;;;72.70;51.85;;;;;;;;;;5046776;28;20421;-59
2021/12/24 16:20:50;;;;;;;74.57;52.58;;;;;;;;;;5045231;28;20496;-56
2021/12/24 16:23:17;;;;;;;80.38;55.10;;;;;;;;;;5051744;28;20052;-57
2021/12/24 16:25:44;;;;;;;80.85;56.88;;;;;;;;;;5046313;28;20048;-61
2021/12/24 16:28:12;;;;;;;72.10;51.33;;;;;;;;;;5036703;28;20045;-59
2021/12/24 16:30:40;;;;;;;85.30;54.00;;;;;;;;;;5035107;28;20511;-58
2021/12/24 16:33:07;;;;;;;79.20;57.28;;;;;;;;;;5048289;28;20045;-60
2021/12/24 16:35:34;;;;;;;74.90;52.30;;;;;;;;;;5035073;28;20065;-60
2021/12/24 16:38:03;;;;;;;81.20;54.85;;;;;;;;;;5035353;28;20100;-61
2021/12/24 16:40:33;;;;;;;81.38;55.47;;;;;;;;;;5036227;28;20053;-60
2021/12/24 16:43:01;;;;;;;74.05;54.90;;;;;;;;;;5033968;28;20555;-60
2021/12/24 16:45:30;;;;;;;72.88;52.92;;;;;;;;;;5034307;28;20046;-60